createdAt,value
2018-05-23T00:00:58.560Z,13.26
2018-05-23T00:02:04.885Z,13.19
2018-05-23T00:03:11.233Z,13.21
2018-05-23T00:04:17.531Z,13.22
2018-05-23T00:05:23.862Z,13.28
2018-05-23T00:06:30.205Z,13.29
2018-05-23T00:07:36.530Z,13.30
2018-05-23T00:08:42.873Z,13.31
2018-05-23T00:09:49.182Z,13.32
2018-05-23T00:10:55.512Z,13.46
2018-05-23T00:12:01.851Z,13.44
2018-05-23T00:13:08.197Z,13.38
2018-05-23T00:14:14.524Z,13.32
2018-05-23T00:15:20.844Z,13.31
2018-05-23T00:16:27.173Z,13.30
2018-05-23T00:17:33.494Z,13.26
2018-05-23T00:18:39.851Z,13.30
2018-05-23T00:19:46.153Z,13.27
2018-05-23T00:20:52.489Z,13.37
2018-05-23T00:21:58.822Z,13.35
2018-05-23T00:23:05.176Z,13.41
2018-05-23T00:24:11.496Z,13.41
2018-05-23T00:25:17.823Z,13.35
2018-05-23T00:26:24.170Z,13.38
2018-05-23T00:27:30.489Z,13.48
2018-05-23T00:28:36.851Z,13.53
2018-05-23T00:29:43.172Z,13.56
2018-05-23T00:30:49.492Z,13.49
2018-05-23T00:31:55.832Z,13.49
2018-05-23T00:33:02.172Z,13.52
2018-05-23T00:34:09.017Z,13.45
2018-05-23T00:35:14.852Z,13.48
2018-05-23T00:36:21.174Z,13.52
2018-05-23T00:37:27.703Z,13.49
2018-05-23T00:38:33.871Z,13.47
2018-05-23T00:39:40.182Z,13.49
2018-05-23T00:40:46.525Z,13.60
2018-05-23T00:41:52.848Z,13.63
2018-05-23T00:42:59.202Z,13.67
2018-05-23T00:44:06.011Z,13.55
2018-05-23T00:45:11.869Z,13.47
2018-05-23T00:46:18.204Z,13.43
2018-05-23T00:47:25.542Z,13.38
2018-05-23T00:48:30.915Z,13.34
2018-05-23T00:49:37.233Z,13.31
2018-05-23T00:50:43.554Z,13.31
2018-05-23T00:51:49.890Z,13.28
2018-05-23T00:52:56.237Z,13.35
2018-05-23T00:54:02.592Z,13.42
2018-05-23T00:55:08.911Z,13.35
2018-05-23T00:56:15.236Z,13.38
2018-05-23T00:57:21.588Z,13.38
2018-05-23T00:58:27.936Z,13.36
2018-05-23T00:59:34.251Z,13.34
2018-05-23T01:00:40.590Z,13.30
2018-05-23T01:01:46.921Z,13.25
2018-05-23T01:02:53.265Z,13.15
2018-05-23T01:03:59.619Z,12.97
2018-05-23T01:05:05.919Z,12.78
2018-05-23T01:06:12.449Z,12.71
2018-05-23T01:07:18.597Z,12.63
2018-05-23T01:08:24.945Z,12.56
2018-05-23T01:09:31.255Z,12.59
2018-05-23T01:10:37.588Z,12.61
2018-05-23T01:11:43.998Z,12.78
2018-05-23T01:12:50.250Z,12.85
2018-05-23T01:13:56.600Z,12.88
2018-05-23T01:15:02.915Z,12.95
2018-05-23T01:16:09.236Z,13.01
2018-05-23T01:17:15.585Z,12.93
2018-05-23T01:18:22.917Z,12.79
2018-05-23T01:19:28.237Z,12.64
2018-05-23T01:20:34.556Z,12.76
2018-05-23T01:21:40.888Z,12.77
2018-05-23T01:22:47.217Z,12.72
2018-05-23T01:23:53.569Z,12.73
2018-05-23T01:24:59.856Z,12.75
2018-05-23T01:26:06.184Z,12.72
2018-05-23T01:27:12.517Z,12.73
2018-05-23T01:28:19.355Z,12.69
2018-05-23T01:29:25.184Z,12.50
2018-05-23T01:30:31.486Z,12.36
2018-05-23T01:31:38.300Z,12.30
2018-05-23T01:32:44.136Z,12.27
2018-05-23T01:33:50.549Z,12.14
2018-05-23T01:34:56.776Z,12.05
2018-05-23T01:36:03.081Z,12.01
2018-05-23T01:37:09.420Z,12.02
2018-05-23T01:38:15.735Z,11.94
2018-05-23T01:39:23.060Z,11.81
2018-05-23T01:40:28.859Z,11.75
2018-05-23T01:41:34.675Z,11.72
2018-05-23T01:42:40.987Z,11.71
2018-05-23T01:43:47.321Z,11.75
2018-05-23T01:44:54.627Z,11.71
2018-05-23T01:45:59.930Z,11.68
2018-05-23T01:47:06.251Z,11.62
2018-05-23T01:48:12.567Z,11.56
2018-05-23T01:49:18.890Z,11.54
2018-05-23T01:50:25.184Z,11.50
2018-05-23T01:51:31.492Z,11.42
2018-05-23T01:52:38.807Z,11.42
2018-05-23T01:53:44.135Z,11.37
2018-05-23T01:54:50.545Z,11.41
2018-05-23T01:55:56.746Z,11.45
2018-05-23T01:57:03.046Z,11.46
2018-05-23T01:58:09.345Z,11.47
2018-05-23T01:59:15.671Z,11.53
2018-05-23T02:00:21.949Z,11.41
2018-05-23T02:01:28.269Z,11.37
2018-05-23T02:02:34.583Z,11.27
2018-05-23T02:03:40.885Z,11.22
2018-05-23T02:04:47.163Z,11.31
2018-05-23T02:05:54.464Z,11.34
2018-05-23T02:06:59.772Z,11.33
2018-05-23T02:08:06.083Z,11.27
2018-05-23T02:09:12.387Z,11.25
2018-05-23T02:10:18.664Z,11.20
2018-05-23T02:11:24.975Z,11.25
2018-05-23T02:12:31.272Z,11.15
2018-05-23T02:13:37.612Z,11.11
2018-05-23T02:14:43.875Z,11.08
2018-05-23T02:15:50.166Z,11.08
2018-05-23T02:16:56.457Z,11.07
2018-05-23T02:18:03.753Z,11.11
2018-05-23T02:19:09.078Z,11.18
2018-05-23T02:20:15.362Z,11.31
2018-05-23T02:21:21.645Z,11.35
2018-05-23T02:22:27.954Z,11.34
2018-05-23T02:23:34.285Z,11.44
2018-05-23T02:24:40.537Z,11.42
2018-05-23T02:25:46.847Z,11.51
2018-05-23T02:26:53.142Z,11.45
2018-05-23T02:27:59.426Z,11.38
2018-05-23T02:29:05.741Z,11.29
2018-05-23T02:30:12.014Z,11.22
2018-05-23T02:31:18.331Z,11.17
2018-05-23T02:32:24.599Z,11.21
2018-05-23T02:33:30.882Z,11.25
2018-05-23T02:34:38.216Z,11.23
2018-05-23T02:35:43.480Z,11.22
2018-05-23T02:36:49.772Z,11.24
2018-05-23T02:37:56.089Z,11.25
2018-05-23T02:39:02.377Z,11.35
2018-05-23T02:40:08.660Z,11.38
2018-05-23T02:41:14.955Z,11.48
2018-05-23T02:42:21.248Z,11.59
2018-05-23T02:43:27.592Z,11.65
2018-05-23T02:44:33.850Z,11.71
2018-05-23T02:45:40.113Z,11.69
2018-05-23T02:46:46.424Z,11.65
2018-05-23T02:47:52.714Z,11.61
2018-05-23T02:48:59.556Z,11.60
2018-05-23T02:50:05.304Z,11.66
2018-05-23T02:51:11.597Z,11.67
2018-05-23T02:52:17.897Z,11.65
2018-05-23T02:53:24.201Z,11.67
2018-05-23T02:54:30.511Z,11.71
2018-05-23T02:55:36.773Z,11.80
2018-05-23T02:56:43.072Z,11.74
2018-05-23T02:57:49.368Z,11.68
2018-05-23T02:58:55.691Z,11.64
2018-05-23T03:00:01.962Z,11.61
2018-05-23T03:01:08.261Z,11.58
2018-05-23T03:02:14.559Z,11.57
2018-05-23T03:03:20.840Z,11.51
2018-05-23T03:04:27.163Z,11.46
2018-05-23T03:05:33.431Z,11.40
2018-05-23T03:06:39.724Z,11.41
2018-05-23T03:07:46.034Z,11.49
2018-05-23T03:08:52.836Z,11.46
2018-05-23T03:09:58.616Z,11.49
2018-05-23T03:11:04.902Z,11.52
2018-05-23T03:12:11.217Z,11.57
2018-05-23T03:13:17.498Z,11.57
2018-05-23T03:14:23.820Z,11.50
2018-05-23T03:15:30.089Z,11.49
2018-05-23T03:16:36.382Z,11.49
2018-05-23T03:17:42.687Z,11.47
2018-05-23T03:18:49.007Z,11.46
2018-05-23T03:19:55.267Z,11.48
2018-05-23T03:21:02.567Z,11.60
2018-05-23T03:22:07.873Z,11.68
2018-05-23T03:23:14.175Z,11.66
2018-05-23T03:24:20.485Z,11.81
2018-05-23T03:25:26.768Z,12.06
2018-05-23T03:26:33.065Z,12.16
2018-05-23T03:27:39.375Z,12.31
2018-05-23T03:28:46.672Z,12.52
2018-05-23T03:29:51.974Z,12.72
2018-05-23T03:30:58.266Z,12.88
2018-05-23T03:32:04.565Z,12.94
2018-05-23T03:33:10.873Z,13.02
2018-05-23T03:34:17.198Z,13.06
2018-05-23T03:35:24.492Z,13.13
2018-05-23T03:36:29.799Z,13.17
2018-05-23T03:37:36.104Z,13.19
2018-05-23T03:38:42.408Z,13.22
2018-05-23T03:39:48.747Z,13.25
2018-05-23T03:40:55.039Z,13.26
2018-05-23T03:42:01.354Z,13.29
2018-05-23T03:43:07.668Z,13.33
2018-05-23T03:44:14.002Z,13.40
2018-05-23T03:45:20.308Z,13.41
2018-05-23T03:46:26.622Z,13.43
2018-05-23T03:47:32.943Z,13.46
2018-05-23T03:48:39.283Z,13.52
2018-05-23T03:49:45.615Z,13.57
2018-05-23T03:50:51.911Z,13.62
2018-05-23T03:51:58.236Z,13.63
2018-05-23T03:53:04.566Z,13.70
2018-05-23T03:54:10.933Z,13.72
2018-05-23T03:55:17.297Z,13.77
2018-05-23T03:56:23.551Z,13.80
2018-05-23T03:57:29.894Z,13.85
2018-05-23T03:58:36.224Z,13.92
2018-05-23T03:59:42.566Z,13.96
2018-05-23T04:00:48.875Z,14.02
2018-05-23T04:01:55.215Z,14.06
2018-05-23T04:03:01.549Z,14.09
2018-05-23T04:04:07.911Z,14.12
2018-05-23T04:05:14.231Z,14.19
2018-05-23T04:06:20.561Z,14.22
2018-05-23T04:07:26.907Z,14.21
2018-05-23T04:08:33.242Z,14.21
2018-05-23T04:09:39.617Z,14.25
2018-05-23T04:10:45.933Z,14.24
2018-05-23T04:11:52.280Z,14.21
2018-05-23T04:12:58.616Z,14.24
2018-05-23T04:14:04.967Z,14.30
2018-05-23T04:15:11.398Z,14.36
2018-05-23T04:16:17.672Z,14.38
2018-05-23T04:17:24.024Z,14.34
2018-05-23T04:18:30.384Z,14.36
2018-05-23T04:19:36.757Z,14.38
2018-05-23T04:20:43.075Z,14.38
2018-05-23T04:21:49.458Z,14.40
2018-05-23T04:22:55.786Z,14.42
2018-05-23T04:24:02.154Z,14.46
2018-05-23T04:25:08.533Z,14.54
2018-05-23T04:26:14.859Z,14.61
2018-05-23T04:27:21.219Z,14.61
2018-05-23T04:28:27.603Z,14.62
2018-05-23T04:29:33.964Z,14.65
2018-05-23T04:30:40.305Z,14.69
2018-05-23T04:31:46.678Z,14.68
2018-05-23T04:32:53.024Z,14.73
2018-05-23T04:33:59.408Z,14.72
2018-05-23T04:35:05.796Z,14.74
2018-05-23T04:36:12.637Z,14.75
2018-05-23T04:37:18.516Z,14.76
2018-05-23T04:38:24.874Z,14.75
2018-05-23T04:39:31.261Z,14.72
2018-05-23T04:40:37.613Z,14.73
2018-05-23T04:41:43.978Z,14.73
2018-05-23T04:42:50.362Z,14.74
2018-05-23T04:43:56.728Z,14.78
2018-05-23T04:45:03.122Z,14.83
2018-05-23T04:46:09.471Z,14.84
2018-05-23T04:47:15.848Z,14.81
2018-05-23T04:48:22.222Z,14.82
2018-05-23T04:49:28.626Z,14.80
2018-05-23T04:50:34.992Z,14.86
2018-05-23T04:51:41.356Z,14.96
2018-05-23T04:52:47.740Z,14.99
2018-05-23T04:53:54.613Z,15.01
2018-05-23T04:55:00.523Z,15.04
2018-05-23T04:56:06.881Z,15.06
2018-05-23T04:57:13.265Z,15.10
2018-05-23T04:58:19.661Z,15.13
2018-05-23T04:59:26.073Z,15.17
2018-05-23T05:00:32.434Z,15.15
2018-05-23T05:01:38.822Z,15.20
2018-05-23T05:02:45.235Z,15.23
2018-05-23T05:03:51.613Z,15.25
2018-05-23T05:04:58.043Z,15.28
2018-05-23T05:06:04.409Z,15.30
2018-05-23T05:07:10.812Z,15.37
2018-05-23T05:08:17.223Z,15.41
2018-05-23T05:09:23.606Z,15.46
2018-05-23T05:10:30.032Z,15.50
2018-05-23T05:11:36.425Z,15.52
2018-05-23T05:12:42.811Z,15.56
2018-05-23T05:13:49.302Z,15.61
2018-05-23T05:14:55.693Z,15.63
2018-05-23T05:16:02.037Z,15.64
2018-05-23T05:17:08.538Z,15.64
2018-05-23T05:18:14.869Z,15.68
2018-05-23T05:19:21.269Z,15.73
2018-05-23T05:20:28.704Z,15.78
2018-05-23T05:21:34.113Z,15.82
2018-05-23T05:22:40.547Z,15.88
2018-05-23T05:23:46.951Z,15.91
2018-05-23T05:24:53.442Z,15.89
2018-05-23T05:25:59.799Z,15.91
2018-05-23T05:27:06.420Z,15.95
2018-05-23T05:28:12.656Z,15.97
2018-05-23T05:29:19.088Z,16.02
2018-05-23T05:30:25.539Z,16.07
2018-05-23T05:31:31.946Z,16.14
2018-05-23T05:32:38.377Z,16.23
2018-05-23T05:33:44.821Z,16.28
2018-05-23T05:34:51.282Z,16.35
2018-05-23T05:35:57.700Z,16.45
2018-05-23T05:37:04.134Z,16.53
2018-05-23T05:38:10.583Z,16.54
2018-05-23T05:39:17.035Z,16.62
2018-05-23T05:40:23.596Z,16.66
2018-05-23T05:41:29.941Z,16.72
2018-05-23T05:42:36.385Z,16.75
2018-05-23T05:43:42.835Z,16.73
2018-05-23T05:44:49.305Z,16.79
2018-05-23T05:45:56.741Z,16.88
2018-05-23T05:47:02.709Z,16.92
2018-05-23T05:48:08.667Z,16.91
2018-05-23T05:49:16.143Z,16.93
2018-05-23T05:50:21.620Z,16.90
2018-05-23T05:51:28.061Z,16.89
2018-05-23T05:52:34.537Z,16.81
2018-05-23T05:53:40.995Z,16.78
2018-05-23T05:54:47.482Z,16.75
2018-05-23T05:55:53.921Z,16.77
2018-05-23T05:57:00.395Z,16.80
2018-05-23T05:58:06.973Z,16.80
2018-05-23T05:59:13.333Z,16.81
2018-05-23T06:00:19.817Z,16.82
2018-05-23T06:01:26.260Z,16.80
2018-05-23T06:02:32.743Z,16.83
2018-05-23T06:03:39.203Z,16.78
2018-05-23T06:04:45.696Z,16.77
2018-05-23T06:05:52.142Z,16.73
2018-05-23T06:06:58.626Z,16.70
2018-05-23T06:08:05.081Z,16.71
2018-05-23T06:09:11.534Z,16.63
2018-05-23T06:10:18.214Z,16.59
2018-05-23T06:11:25.462Z,16.52
2018-05-23T06:12:30.926Z,16.50
2018-05-23T06:13:37.391Z,16.48
2018-05-23T06:14:43.889Z,16.49
2018-05-23T06:15:50.321Z,16.52
2018-05-23T06:16:57.780Z,16.50
2018-05-23T06:18:03.253Z,16.54
2018-05-23T06:19:09.720Z,16.52
2018-05-23T06:20:16.205Z,16.55
2018-05-23T06:21:22.644Z,16.54
2018-05-23T06:22:29.122Z,16.57
2018-05-23T06:23:35.602Z,16.59
2018-05-23T06:24:42.054Z,16.59
2018-05-23T06:25:48.567Z,16.58
2018-05-23T06:26:54.998Z,16.56
2018-05-23T06:28:01.482Z,16.60
2018-05-23T06:29:07.952Z,16.61
2018-05-23T06:30:14.478Z,16.65
2018-05-23T06:31:20.889Z,16.66
2018-05-23T06:32:27.360Z,16.61
2018-05-23T06:33:33.845Z,16.57
2018-05-23T06:34:40.301Z,16.55
2018-05-23T06:35:46.798Z,16.50
2018-05-23T06:36:53.254Z,16.49
2018-05-23T06:37:59.718Z,16.54
2018-05-23T06:39:06.190Z,16.58
2018-05-23T06:40:12.686Z,16.63
2018-05-23T06:41:19.133Z,16.68
2018-05-23T06:42:25.610Z,16.73
2018-05-23T06:43:32.172Z,16.76
2018-05-23T06:44:38.562Z,16.84
2018-05-23T06:45:45.061Z,16.93
2018-05-23T06:46:51.525Z,16.97
2018-05-23T06:47:58.009Z,17.06
2018-05-23T06:49:04.485Z,17.16
2018-05-23T06:50:10.989Z,17.18
2018-05-23T06:51:17.453Z,17.23
2018-05-23T06:52:23.948Z,17.24
2018-05-23T06:53:30.929Z,17.26
2018-05-23T06:54:36.918Z,17.28
2018-05-23T06:55:43.633Z,17.25
2018-05-23T06:56:49.907Z,17.25
2018-05-23T06:57:56.394Z,17.29
2018-05-23T06:59:02.955Z,17.34
2018-05-23T07:00:10.394Z,17.41
2018-05-23T07:01:15.868Z,17.48
2018-05-23T07:02:22.372Z,17.45
2018-05-23T07:03:28.870Z,17.39
2018-05-23T07:04:35.361Z,17.30
2018-05-23T07:05:41.900Z,17.24
2018-05-23T07:06:48.351Z,17.27
2018-05-23T07:07:54.841Z,17.27
2018-05-23T07:09:01.343Z,17.24
2018-05-23T07:10:07.856Z,17.20
2018-05-23T07:11:14.349Z,17.15
2018-05-23T07:12:20.826Z,17.13
2018-05-23T07:13:27.307Z,17.09
2018-05-23T07:14:33.822Z,17.08
2018-05-23T07:15:40.338Z,17.08
2018-05-23T07:16:46.809Z,17.10
2018-05-23T07:17:53.342Z,17.14
2018-05-23T07:19:00.127Z,17.17
2018-05-23T07:20:06.355Z,17.18
2018-05-23T07:21:12.826Z,17.20
2018-05-23T07:22:19.341Z,17.22
2018-05-23T07:23:25.865Z,17.15
2018-05-23T07:24:32.353Z,17.14
2018-05-23T07:25:38.889Z,17.07
2018-05-23T07:26:45.359Z,17.05
2018-05-23T07:27:51.861Z,17.00
2018-05-23T07:28:58.359Z,16.92
2018-05-23T07:30:04.917Z,16.88
2018-05-23T07:31:11.347Z,16.85
2018-05-23T07:32:17.847Z,16.83
2018-05-23T07:33:24.343Z,16.80
2018-05-23T07:34:30.835Z,16.80
2018-05-23T07:35:37.341Z,16.77
2018-05-23T07:36:43.816Z,16.73
2018-05-23T07:37:50.312Z,16.60
2018-05-23T07:38:56.794Z,16.45
2018-05-23T07:40:03.312Z,16.23
2018-05-23T07:41:09.787Z,16.00
2018-05-23T07:42:16.247Z,15.85
2018-05-23T07:43:22.736Z,15.71
2018-05-23T07:44:29.284Z,15.60
2018-05-23T07:45:35.699Z,15.50
2018-05-23T07:46:42.140Z,15.39
2018-05-23T07:47:48.601Z,15.31
2018-05-23T07:48:55.062Z,15.25
2018-05-23T07:50:01.536Z,15.23
2018-05-23T07:51:08.006Z,15.19
2018-05-23T07:52:14.538Z,15.17
2018-05-23T07:53:20.893Z,15.17
2018-05-23T07:54:27.355Z,15.19
2018-05-23T07:55:33.824Z,15.20
2018-05-23T07:56:40.317Z,15.22
2018-05-23T07:57:46.700Z,15.24
2018-05-23T07:58:53.149Z,15.26
2018-05-23T07:59:59.589Z,15.30
2018-05-23T08:01:06.090Z,15.32
2018-05-23T08:02:12.495Z,15.35
2018-05-23T08:03:19.436Z,15.39
2018-05-23T08:04:25.384Z,15.45
2018-05-23T08:05:31.852Z,15.51
2018-05-23T08:06:38.292Z,15.57
2018-05-23T08:07:44.746Z,15.62
2018-05-23T08:08:51.180Z,15.66
2018-05-23T08:09:57.637Z,15.71
2018-05-23T08:11:04.122Z,15.74
2018-05-23T08:12:10.548Z,15.85
2018-05-23T08:13:17.006Z,15.93
2018-05-23T08:14:23.461Z,16.02
2018-05-23T08:15:29.941Z,16.10
2018-05-23T08:16:36.387Z,16.17
2018-05-23T08:17:42.838Z,16.26
2018-05-23T08:18:49.292Z,16.35
2018-05-23T08:19:55.766Z,16.45
2018-05-23T08:21:02.240Z,16.55
2018-05-23T08:22:08.676Z,16.60
2018-05-23T08:23:16.134Z,16.72
2018-05-23T08:24:21.837Z,16.80
2018-05-23T08:25:28.106Z,16.88
2018-05-23T08:26:34.551Z,17.02
2018-05-23T08:27:41.039Z,17.16
2018-05-23T08:28:47.530Z,17.28
2018-05-23T08:29:54.091Z,17.34
2018-05-23T08:31:00.507Z,17.52
2018-05-23T08:32:06.965Z,17.59
2018-05-23T08:33:13.445Z,17.76
2018-05-23T08:34:19.955Z,17.92
2018-05-23T08:35:26.960Z,17.99
2018-05-23T08:36:32.951Z,18.10
2018-05-23T08:37:39.454Z,18.17
2018-05-23T08:38:45.951Z,18.25
2018-05-23T08:39:52.591Z,18.28
2018-05-23T08:40:59.501Z,18.42
2018-05-23T08:42:05.503Z,18.47
2018-05-23T08:43:12.032Z,18.59
2018-05-23T08:44:18.567Z,18.62
2018-05-23T08:45:25.588Z,18.67
2018-05-23T08:46:31.614Z,18.77
2018-05-23T08:47:38.140Z,18.84
2018-05-23T08:48:44.692Z,19.01
2018-05-23T08:49:51.233Z,19.12
2018-05-23T08:50:57.796Z,19.26
2018-05-23T08:52:04.326Z,19.34
2018-05-23T08:53:11.387Z,19.40
2018-05-23T08:54:17.439Z,19.54
2018-05-23T08:55:24.074Z,19.65
2018-05-23T08:56:30.598Z,19.73
2018-05-23T08:57:37.184Z,19.68
2018-05-23T08:58:43.753Z,19.78
2018-05-23T08:59:50.345Z,19.77
2018-05-23T09:00:56.965Z,19.81
2018-05-23T09:02:03.521Z,19.95
2018-05-23T09:03:10.136Z,20.05
2018-05-23T09:04:16.761Z,20.08
2018-05-23T09:05:23.533Z,20.15
2018-05-23T09:06:29.979Z,20.09
2018-05-23T09:07:37.068Z,20.17
2018-05-23T09:08:43.183Z,20.11
2018-05-23T09:09:49.812Z,20.15
2018-05-23T09:10:56.550Z,20.25
2018-05-23T09:12:03.071Z,20.24
2018-05-23T09:13:09.683Z,20.06
2018-05-23T09:14:16.812Z,20.31
2018-05-23T09:15:23.420Z,20.55
2018-05-23T09:16:30.637Z,20.64
2018-05-23T09:17:36.730Z,20.60
2018-05-23T09:18:42.887Z,20.85
2018-05-23T09:19:49.537Z,20.81
2018-05-23T09:20:56.205Z,20.89
2018-05-23T09:22:02.831Z,20.94
2018-05-23T09:23:09.496Z,21.10
2018-05-23T09:24:16.162Z,21.39
2018-05-23T09:25:22.895Z,21.39
2018-05-23T09:26:29.522Z,21.32
2018-05-23T09:27:36.179Z,21.62
2018-05-23T09:28:42.870Z,21.85
2018-05-23T09:29:50.575Z,22.06
2018-05-23T09:30:56.283Z,22.07
2018-05-23T09:32:02.958Z,22.31
2018-05-23T09:33:09.662Z,22.38
2018-05-23T09:34:16.870Z,22.47
2018-05-23T09:35:23.094Z,22.48
2018-05-23T09:36:29.815Z,22.66
2018-05-23T09:37:36.526Z,22.81
2018-05-23T09:38:43.259Z,23.08
2018-05-23T09:39:49.987Z,22.99
2018-05-23T09:40:56.750Z,23.18
2018-05-23T09:42:03.484Z,22.81
2018-05-23T09:43:10.227Z,22.65
2018-05-23T09:44:16.978Z,22.48
2018-05-23T09:45:23.738Z,22.49
2018-05-23T09:46:30.516Z,22.07
2018-05-23T09:47:37.247Z,21.82
2018-05-23T09:48:44.008Z,21.64
2018-05-23T09:49:50.765Z,21.58
2018-05-23T09:50:57.539Z,21.55
2018-05-23T09:52:04.273Z,21.65
2018-05-23T09:53:11.023Z,21.54
2018-05-23T09:54:17.758Z,21.25
2018-05-23T09:55:24.507Z,20.98
2018-05-23T09:56:31.269Z,20.74
2018-05-23T09:57:37.958Z,20.73
2018-05-23T09:58:44.682Z,20.81
2018-05-23T09:59:51.392Z,20.81
2018-05-23T10:00:58.124Z,20.97
2018-05-23T10:02:04.822Z,21.07
2018-05-23T10:03:11.522Z,21.05
2018-05-23T10:04:18.218Z,21.08
2018-05-23T10:05:24.926Z,21.10
2018-05-23T10:06:31.641Z,21.24
2018-05-23T10:07:38.811Z,21.28
2018-05-23T10:08:45.027Z,21.41
2018-05-23T10:09:51.720Z,21.45
2018-05-23T10:10:58.431Z,21.49
2018-05-23T10:12:05.096Z,21.46
2018-05-23T10:13:11.793Z,21.31
2018-05-23T10:14:18.472Z,21.37
2018-05-23T10:15:25.234Z,21.47
2018-05-23T10:16:31.873Z,21.63
2018-05-23T10:17:38.536Z,21.69
2018-05-23T10:18:45.214Z,21.77
2018-05-23T10:19:51.893Z,21.69
2018-05-23T10:20:58.595Z,21.74
2018-05-23T10:22:05.267Z,21.76
2018-05-23T10:23:11.932Z,21.81
2018-05-23T10:24:18.620Z,21.73
2018-05-23T10:25:25.301Z,21.78
2018-05-23T10:26:31.993Z,21.88
2018-05-23T10:27:38.657Z,21.84
2018-05-23T10:28:45.343Z,21.93
2018-05-23T10:29:52.024Z,21.78
2018-05-23T10:30:59.725Z,21.72
2018-05-23T10:32:05.392Z,21.79
2018-05-23T10:33:12.064Z,21.81
2018-05-23T10:34:18.799Z,21.84
2018-05-23T10:35:25.421Z,21.76
2018-05-23T10:36:32.637Z,21.69
2018-05-23T10:37:38.789Z,21.77
2018-05-23T10:38:45.464Z,21.91
2018-05-23T10:39:52.144Z,22.05
2018-05-23T10:40:58.849Z,22.04
2018-05-23T10:42:05.516Z,21.88
2018-05-23T10:43:12.205Z,21.90
2018-05-23T10:44:18.905Z,22.09
2018-05-23T10:45:25.602Z,22.34
2018-05-23T10:46:32.344Z,22.47
2018-05-23T10:47:39.024Z,22.62
2018-05-23T10:48:45.740Z,22.81
2018-05-23T10:49:52.475Z,22.81
2018-05-23T10:50:59.251Z,22.97
2018-05-23T10:52:05.984Z,23.12
2018-05-23T10:53:12.730Z,23.33
2018-05-23T10:54:20.018Z,23.61
2018-05-23T10:55:26.806Z,23.82
2018-05-23T10:56:33.137Z,23.77
2018-05-23T10:57:39.940Z,23.84
2018-05-23T10:58:46.762Z,24.10
2018-05-23T10:59:53.612Z,24.41
2018-05-23T11:01:00.509Z,24.57
2018-05-23T11:02:07.377Z,24.79
2018-05-23T11:03:14.255Z,25.00
2018-05-23T11:04:21.173Z,25.27
2018-05-23T11:05:28.095Z,25.37
2018-05-23T11:06:35.065Z,25.31
2018-05-23T11:07:42.528Z,25.48
2018-05-23T11:08:49.915Z,25.53
2018-05-23T11:09:56.329Z,25.45
2018-05-23T11:11:03.337Z,25.38
2018-05-23T11:12:09.750Z,25.58
2018-05-23T11:13:17.183Z,25.79
2018-05-23T11:14:24.148Z,25.59
2018-05-23T11:15:30.811Z,25.69
2018-05-23T11:16:37.631Z,25.85
2018-05-23T11:17:45.083Z,25.83
2018-05-23T11:18:51.602Z,25.83
2018-05-23T11:19:58.611Z,25.53
2018-05-23T11:21:05.668Z,25.31
2018-05-23T11:22:12.686Z,25.13
2018-05-23T11:23:20.220Z,25.21
2018-05-23T11:24:27.283Z,25.31
2018-05-23T11:25:33.858Z,25.48
2018-05-23T11:26:40.989Z,25.35
2018-05-23T11:27:48.588Z,25.28
2018-05-23T11:28:55.270Z,25.06
2018-05-23T11:30:02.473Z,24.79
2018-05-23T11:31:09.733Z,24.80
2018-05-23T11:32:17.000Z,25.07
2018-05-23T11:33:24.363Z,25.15
2018-05-23T11:34:33.188Z,25.13
2018-05-23T11:35:39.103Z,25.07
2018-05-23T11:36:46.520Z,24.98
2018-05-23T11:37:53.930Z,25.13
2018-05-23T11:39:01.354Z,25.20
2018-05-23T11:40:08.760Z,25.22
2018-05-23T11:41:16.205Z,25.15
2018-05-23T11:42:23.598Z,25.05
2018-05-23T11:43:31.069Z,25.04
2018-05-23T11:44:38.566Z,25.18
2018-05-23T11:45:46.105Z,25.39
2018-05-23T11:46:53.684Z,25.58
2018-05-23T11:48:01.720Z,25.63
2018-05-23T11:49:08.852Z,25.79
2018-05-23T11:50:16.541Z,25.69
2018-05-23T11:51:24.034Z,25.59
2018-05-23T11:52:31.543Z,25.60
2018-05-23T11:53:39.059Z,25.52
2018-05-23T11:54:46.585Z,25.64
2018-05-23T11:55:54.533Z,25.49
2018-05-23T11:57:01.378Z,25.35
2018-05-23T11:58:09.192Z,25.38
2018-05-23T11:59:17.017Z,25.35
2018-05-23T12:00:23.308Z,25.32
2018-05-23T12:01:31.599Z,25.29
2018-05-23T12:02:37.820Z,25.45
2018-05-23T12:03:45.045Z,25.55
2018-05-23T12:04:52.277Z,25.47
2018-05-23T12:05:59.489Z,25.50
2018-05-23T12:07:06.726Z,25.44
2018-05-23T12:08:14.391Z,25.59
2018-05-23T12:09:21.152Z,25.69
2018-05-23T12:10:28.475Z,25.97
2018-05-23T12:11:36.112Z,26.18
2018-05-23T12:12:42.781Z,26.39
2018-05-23T12:13:49.996Z,26.19
2018-05-23T12:14:57.171Z,26.11
2018-05-23T12:16:04.365Z,26.11
2018-05-23T12:17:12.088Z,25.88
2018-05-23T12:18:19.257Z,25.72
2018-05-23T12:19:26.027Z,25.44
2018-05-23T12:20:33.754Z,25.31
2018-05-23T12:21:41.579Z,25.26
2018-05-23T12:22:48.394Z,25.08
2018-05-23T12:23:56.296Z,24.99
2018-05-23T12:25:02.766Z,24.94
2018-05-23T12:26:10.279Z,24.93
2018-05-23T12:27:17.841Z,24.82
2018-05-23T12:28:25.377Z,24.83
2018-05-23T12:29:32.956Z,24.74
2018-05-23T12:30:40.550Z,24.71
2018-05-23T12:31:48.185Z,24.69
2018-05-23T12:32:55.785Z,24.86
2018-05-23T12:34:03.406Z,24.90
2018-05-23T12:35:11.035Z,24.88
2018-05-23T12:36:18.689Z,24.97
2018-05-23T12:37:26.303Z,25.08
2018-05-23T12:38:33.945Z,25.20
2018-05-23T12:39:42.086Z,25.28
2018-05-23T12:40:49.230Z,25.18
2018-05-23T12:41:56.903Z,25.13
2018-05-23T12:43:05.053Z,25.02
2018-05-23T12:44:12.211Z,25.04
2018-05-23T12:45:20.358Z,25.15
2018-05-23T12:46:27.571Z,25.19
2018-05-23T12:47:35.207Z,25.29
2018-05-23T12:48:42.893Z,25.36
2018-05-23T12:49:50.555Z,25.38
2018-05-23T12:50:58.754Z,25.43
2018-05-23T12:52:06.558Z,25.49
2018-05-23T12:53:14.612Z,25.38
2018-05-23T12:54:21.299Z,25.35
2018-05-23T12:55:29.501Z,25.28
2018-05-23T12:56:36.699Z,25.28
2018-05-23T12:57:44.370Z,25.40
2018-05-23T12:58:52.055Z,25.52
2018-05-23T12:59:59.754Z,25.61
2018-05-23T13:01:08.934Z,25.76
2018-05-23T13:02:15.174Z,25.87
2018-05-23T13:03:22.895Z,26.01
2018-05-23T13:04:30.547Z,26.14
2018-05-23T13:05:38.728Z,26.42
2018-05-23T13:06:45.970Z,26.54
2018-05-23T13:07:54.135Z,26.58
2018-05-23T13:09:01.376Z,26.62
2018-05-23T13:10:09.078Z,26.63
2018-05-23T13:11:16.807Z,26.47
2018-05-23T13:12:24.629Z,26.18
2018-05-23T13:13:32.039Z,25.98
2018-05-23T13:14:39.576Z,26.05
2018-05-23T13:15:47.141Z,26.09
2018-05-23T13:16:55.212Z,26.21
2018-05-23T13:18:02.770Z,26.41
2018-05-23T13:19:09.900Z,26.63
2018-05-23T13:20:17.541Z,26.87
2018-05-23T13:21:25.209Z,27.06
2018-05-23T13:22:32.923Z,27.25
2018-05-23T13:23:40.619Z,27.45
2018-05-23T13:24:48.860Z,27.67
2018-05-23T13:25:56.145Z,27.96
2018-05-23T13:27:03.947Z,28.09
2018-05-23T13:28:12.234Z,27.94
2018-05-23T13:29:20.524Z,27.58
2018-05-23T13:30:27.224Z,27.64
2018-05-23T13:31:34.908Z,27.66
2018-05-23T13:32:42.530Z,27.50
2018-05-23T13:33:50.158Z,27.32
2018-05-23T13:34:57.716Z,27.08
2018-05-23T13:36:06.240Z,26.82
2018-05-23T13:37:12.732Z,26.58
2018-05-23T13:38:20.148Z,26.41
2018-05-23T13:39:27.565Z,26.26
2018-05-23T13:40:34.946Z,26.18
2018-05-23T13:41:42.322Z,26.12
2018-05-23T13:42:50.145Z,26.07
2018-05-23T13:43:58.003Z,26.04
2018-05-23T13:45:04.325Z,25.97
2018-05-23T13:46:12.145Z,26.04
2018-05-23T13:47:18.957Z,26.09
2018-05-23T13:48:26.196Z,26.07
2018-05-23T13:49:33.463Z,26.11
2018-05-23T13:50:40.714Z,26.23
2018-05-23T13:51:47.979Z,26.27
2018-05-23T13:52:55.681Z,26.33
2018-05-23T13:54:02.918Z,26.40
2018-05-23T13:55:09.674Z,26.43
2018-05-23T13:56:16.859Z,26.36
2018-05-23T13:57:24.085Z,26.33
2018-05-23T13:58:31.254Z,26.28
2018-05-23T13:59:38.523Z,26.25
2018-05-23T14:00:45.608Z,26.15
2018-05-23T14:01:52.849Z,26.07
2018-05-23T14:02:59.909Z,25.93
2018-05-23T14:04:07.048Z,25.87
2018-05-23T14:05:14.160Z,25.95
2018-05-23T14:06:21.757Z,26.01
2018-05-23T14:07:28.422Z,26.09
2018-05-23T14:08:35.459Z,26.13
2018-05-23T14:09:42.625Z,26.08
2018-05-23T14:10:49.652Z,26.12
2018-05-23T14:11:56.728Z,26.17
2018-05-23T14:13:04.281Z,26.24
2018-05-23T14:14:10.851Z,26.25
2018-05-23T14:15:17.920Z,26.40
2018-05-23T14:16:24.988Z,26.51
2018-05-23T14:17:32.073Z,26.68
2018-05-23T14:18:39.130Z,26.85